Time;durP1;ratioP1;P1;durP2;ratioP2;P2;SDS_P1;SDS_P2;PMS_P1;PMS_P2;Temp;Humidity;BMP_temperature;BMP_pressure;BME280_temperature;BME280_humidity;BME280_pressure;Samples;Min_cycle;Max_cycle;Signal;HPM_P1;HPM_P2
2024/01/06 00:00:57;;;;;;;15.82;8.57;;;6.30;99.90;;;;;;4164902;28;20053;-68
2024/01/06 00:02:59;;;;;;;21.00;9.02;;;6.40;99.90;;;;;;4165490;28;20045;-69
2024/01/06 00:05:03;;;;;;;17.88;9.38;;;6.40;99.90;;;;;;4166620;28;20073;-70
2024/01/06 00:07:05;;;;;;;16.90;8.98;;;6.40;99.90;;;;;;4166541;28;20119;-69
2024/01/06 00:09:08;;;;;;;17.58;8.93;;;6.50;99.90;;;;;;4166091;28;20148;-69
2024/01/06 00:11:10;;;;;;;13.05;8.70;;;6.50;99.90;;;;;;4164914;28;20081;-69
2024/01/06 00:13:12;;;;;;;13.75;8.63;;;6.50;99.90;;;;;;4175281;28;20053;-69
2024/01/06 00:15:14;;;;;;;16.80;9.00;;;6.60;99.90;;;;;;4181556;28;20041;-68
2024/01/06 00:17:17;;;;;;;20.63;8.68;;;6.70;99.90;;;;;;4181001;28;20047;-69
2024/01/06 00:19:19;;;;;;;15.77;8.40;;;6.70;99.90;;;;;;4181980;28;20076;-70
2024/01/06 00:21:23;;;;;;;12.90;7.93;;;6.70;99.90;;;;;;4181818;28;20049;-69
2024/01/06 00:23:25;;;;;;;16.85;8.30;;;6.70;99.90;;;;;;4183381;28;20111;-70
2024/01/06 00:25:27;;;;;;;13.45;7.90;;;6.70;99.90;;;;;;4182228;28;20045;-70
2024/01/06 00:27:29;;;;;;;16.23;8.30;;;6.70;99.90;;;;;;4181869;28;20041;-69
2024/01/06 00:29:31;;;;;;;15.32;7.32;;;6.60;99.90;;;;;;4181774;28;20041;-69
2024/01/06 00:31:33;;;;;;;14.57;7.30;;;6.60;99.90;;;;;;4179976;28;20168;-69
2024/01/06 00:33:35;;;;;;;15.27;6.72;;;6.70;99.90;;;;;;4181688;28;20041;-69
2024/01/06 00:35:38;;;;;;;15.57;7.57;;;6.70;99.90;;;;;;4181103;28;20404;-69
2024/01/06 00:37:42;;;;;;;16.98;7.80;;;6.70;99.90;;;;;;4163226;28;20144;-69
2024/01/06 00:39:44;;;;;;;13.38;7.60;;;6.70;99.90;;;;;;4180801;28;20068;-69
2024/01/06 00:41:46;;;;;;;14.25;7.00;;;6.70;99.90;;;;;;4181102;28;20571;-69
2024/01/06 00:43:48;;;;;;;12.90;7.40;;;6.70;99.90;;;;;;4180733;28;20061;-69
2024/01/06 00:45:50;;;;;;;14.70;7.63;;;6.60;99.90;;;;;;4180499;28;20052;-68
2024/01/06 00:47:52;;;;;;;17.00;7.63;;;6.60;99.90;;;;;;4180690;28;20041;-70
2024/01/06 00:49:55;;;;;;;10.85;7.50;;;6.60;99.90;;;;;;4180878;28;20049;-68
2024/01/06 00:51:57;;;;;;;17.98;7.55;;;6.60;99.90;;;;;;4180646;28;20044;-70
2024/01/06 00:54:01;;;;;;;16.23;8.05;;;6.60;99.90;;;;;;4181013;28;20071;-69
2024/01/06 00:56:03;;;;;;;10.27;5.72;;;6.50;99.90;;;;;;4180756;28;20095;-69
2024/01/06 00:58:05;;;;;;;12.95;8.10;;;6.50;99.90;;;;;;4180801;28;20404;-67
2024/01/06 01:00:10;;;;;;;15.15;8.40;;;6.40;99.90;;;;;;4179454;28;20053;-68
2024/01/06 01:02:12;;;;;;;13.57;8.50;;;6.30;99.90;;;;;;4180499;28;20046;-68
2024/01/06 01:04:14;;;;;;;12.82;8.25;;;6.30;99.90;;;;;;4180649;28;20052;-66
2024/01/06 01:06:16;;;;;;;13.27;7.70;;;6.30;99.90;;;;;;4180846;28;20112;-69
2024/01/06 01:08:18;;;;;;;14.65;8.50;;;6.30;99.90;;;;;;4180705;28;20075;-68
2024/01/06 01:10:22;;;;;;;14.50;7.65;;;6.30;99.90;;;;;;4180868;28;20472;-69
2024/01/06 01:12:24;;;;;;;15.20;7.95;;;6.30;99.90;;;;;;4185561;28;20553;-70
2024/01/06 01:14:26;;;;;;;12.98;7.80;;;6.30;99.90;;;;;;4199586;28;20053;-70
2024/01/06 01:16:29;;;;;;;16.20;8.98;;;6.30;99.90;;;;;;4199584;28;20094;-69
2024/01/06 01:18:31;;;;;;;15.75;8.27;;;6.30;99.90;;;;;;4200194;28;20036;-69
2024/01/06 01:20:34;;;;;;;14.80;7.43;;;6.20;99.90;;;;;;4199619;28;20056;-69
2024/01/06 01:22:36;;;;;;;15.10;8.30;;;6.20;99.90;;;;;;4202064;28;20045;-68
2024/01/06 01:24:38;;;;;;;15.13;8.80;;;6.20;99.90;;;;;;4204060;28;20045;-69
2024/01/06 01:26:42;;;;;;;20.85;9.18;;;6.20;99.90;;;;;;4202980;28;20091;-71
2024/01/06 01:28:44;;;;;;;14.90;8.77;;;6.20;99.90;;;;;;4203258;28;20044;-69
2024/01/06 01:30:46;;;;;;;19.08;9.13;;;6.10;99.90;;;;;;4203268;28;20119;-68
2024/01/06 01:32:48;;;;;;;17.63;8.98;;;6.10;99.90;;;;;;4185552;28;20049;-72
2024/01/06 01:34:51;;;;;;;14.57;8.18;;;6.10;99.90;;;;;;4203189;28;20071;-68
2024/01/06 01:36:53;;;;;;;17.33;9.02;;;6.00;99.90;;;;;;4203263;28;20113;-68
2024/01/06 01:38:55;;;;;;;19.77;8.90;;;6.10;99.90;;;;;;4202906;28;20055;-69
2024/01/06 01:40:58;;;;;;;14.80;8.38;;;6.10;99.90;;;;;;4201181;28;20049;-70
2024/01/06 01:43:02;;;;;;;16.35;7.65;;;6.10;99.90;;;;;;4200242;28;20463;-70
2024/01/06 01:45:07;;;;;;;16.27;8.70;;;6.10;99.90;;;;;;4199292;28;20044;-68
2024/01/06 01:47:12;;;;;;;14.32;8.10;;;6.10;99.90;;;;;;4200379;28;20119;-68
2024/01/06 01:49:15;;;;;;;16.45;7.70;;;6.00;99.90;;;;;;4182119;28;20045;-69
2024/01/06 01:51:21;;;;;;;15.80;8.65;;;6.00;99.90;;;;;;4200085;28;20403;-69
2024/01/06 01:53:25;;;;;;;12.73;7.75;;;6.00;99.90;;;;;;4200021;28;20045;-69
2024/01/06 01:55:28;;;;;;;11.73;6.40;;;6.00;99.90;;;;;;4200099;28;20472;-69
2024/01/06 01:57:30;;;;;;;14.10;8.15;;;5.90;99.90;;;;;;4200512;28;20460;-69
2024/01/06 01:59:34;;;;;;;13.38;7.97;;;5.90;99.90;;;;;;4201364;28;20503;-69
2024/01/06 02:01:36;;;;;;;13.05;8.13;;;5.90;99.90;;;;;;4202385;28;20048;-69
2024/01/06 02:03:43;;;;;;;16.42;8.88;;;5.90;99.90;;;;;;4200815;28;20561;-69
2024/01/06 02:05:45;;;;;;;18.67;8.98;;;5.80;99.90;;;;;;4200451;28;20068;-69
2024/01/06 02:07:50;;;;;;;17.38;8.98;;;5.80;99.90;;;;;;4199588;28;20051;-70
2024/01/06 02:09:53;;;;;;;17.23;8.55;;;5.80;99.90;;;;;;4181686;28;20186;-70
2024/01/06 02:11:56;;;;;;;11.60;8.05;;;5.80;99.90;;;;;;4199033;28;20472;-69
2024/01/06 02:13:58;;;;;;;12.30;8.30;;;5.80;99.90;;;;;;4198420;28;20051;-70
2024/01/06 02:16:03;;;;;;;15.00;8.75;;;5.80;99.90;;;;;;4199037;28;20453;-70
2024/01/06 02:18:06;;;;;;;16.98;8.73;;;5.80;99.90;;;;;;4199191;28;20087;-69
2024/01/06 02:20:11;;;;;;;14.30;8.00;;;5.80;99.90;;;;;;4199013;28;20049;-69
2024/01/06 02:22:14;;;;;;;12.88;8.13;;;5.80;99.90;;;;;;4198418;28;20048;-66
2024/01/06 02:24:16;;;;;;;18.27;8.27;;;5.80;99.90;;;;;;4198097;28;20036;-70
2024/01/06 02:26:19;;;;;;;17.10;8.75;;;5.80;99.90;;;;;;4198680;28;20076;-69
2024/01/06 02:28:21;;;;;;;16.75;7.57;;;5.80;99.90;;;;;;4198588;28;20090;-68
2024/01/06 02:30:23;;;;;;;13.40;8.13;;;5.70;99.90;;;;;;4198984;28;20045;-68
2024/01/06 02:32:25;;;;;;;16.33;9.32;;;5.80;99.90;;;;;;4198708;28;20082;-67
2024/01/06 02:34:27;;;;;;;16.25;9.07;;;5.80;99.90;;;;;;4198326;28;20125;-68
2024/01/06 02:36:30;;;;;;;13.43;8.88;;;5.80;99.90;;;;;;4198761;28;20399;-70
2024/01/06 02:38:33;;;;;;;15.93;8.65;;;5.90;99.90;;;;;;4198660;28;20064;-69
2024/01/06 02:40:35;;;;;;;21.83;9.20;;;5.90;99.90;;;;;;4198004;28;20119;-67
2024/01/06 02:42:37;;;;;;;16.70;9.55;;;5.90;99.90;;;;;;4197791;28;20555;-67
2024/01/06 02:44:40;;;;;;;13.23;8.15;;;6.00;99.90;;;;;;4198253;28;20428;-68
2024/01/06 02:46:42;;;;;;;15.63;8.80;;;6.00;99.90;;;;;;4197920;28;20052;-69
2024/01/06 02:48:44;;;;;;;16.50;8.93;;;6.00;99.90;;;;;;4198295;28;20052;-70
2024/01/06 02:50:46;;;;;;;16.42;8.18;;;6.00;99.90;;;;;;4198361;28;20075;-68
2024/01/06 02:52:49;;;;;;;14.43;8.02;;;6.10;99.90;;;;;;4199243;28;20132;-69
2024/01/06 02:54:52;;;;;;;14.52;7.97;;;6.10;99.90;;;;;;4181930;28;20045;-68
2024/01/06 02:56:54;;;;;;;15.82;8.52;;;6.10;99.90;;;;;;4198790;28;20067;-70
2024/01/06 02:58:56;;;;;;;14.07;8.32;;;6.10;99.90;;;;;;4181037;28;20088;-69
2024/01/06 03:00:59;;;;;;;15.23;7.13;;;6.20;99.90;;;;;;4198178;28;20418;-70
2024/01/06 03:03:01;;;;;;;15.10;8.05;;;6.20;99.90;;;;;;4198208;28;20036;-69
2024/01/06 03:05:04;;;;;;;16.00;7.90;;;6.20;99.90;;;;;;4197692;28;20492;-69
2024/01/06 03:07:06;;;;;;;11.45;7.10;;;6.20;99.90;;;;;;4197611;28;20099;-68
2024/01/06 03:09:08;;;;;;;13.23;8.70;;;6.10;99.90;;;;;;4198590;28;20044;-69
2024/01/06 03:11:12;;;;;;;14.10;8.27;;;6.20;99.90;;;;;;4198030;28;20110;-68
2024/01/06 03:13:14;;;;;;;15.57;8.15;;;6.10;99.90;;;;;;4198085;28;20059;-70
2024/01/06 03:15:16;;;;;;;13.75;8.15;;;6.10;99.90;;;;;;4198133;28;20071;-69
2024/01/06 03:17:19;;;;;;;14.10;9.18;;;6.20;99.90;;;;;;4198370;28;20090;-67
2024/01/06 03:19:25;;;;;;;16.60;8.02;;;6.20;99.90;;;;;;4199328;28;20437;-69
2024/01/06 03:21:27;;;;;;;12.77;7.57;;;6.20;99.90;;;;;;4198526;28;20101;-70
2024/01/06 03:23:30;;;;;;;15.23;8.40;;;6.20;99.90;;;;;;4200360;28;20123;-70
2024/01/06 03:25:32;;;;;;;15.82;8.25;;;6.20;99.90;;;;;;4201301;28;20052;-69
2024/01/06 03:27:36;;;;;;;14.52;8.18;;;6.20;99.90;;;;;;4183937;28;20049;-69
2024/01/06 03:29:38;;;;;;;14.70;8.63;;;6.30;99.90;;;;;;4184685;28;20515;-70
2024/01/06 03:31:42;;;;;;;14.73;8.57;;;6.30;99.90;;;;;;4201638;28;20128;-70
2024/01/06 03:33:46;;;;;;;14.00;8.02;;;6.30;99.90;;;;;;4198017;28;20049;-69
2024/01/06 03:35:48;;;;;;;15.15;8.82;;;6.30;99.90;;;;;;4197430;28;20131;-69
2024/01/06 03:37:50;;;;;;;15.02;8.82;;;6.30;99.90;;;;;;4198261;28;20123;-69
2024/01/06 03:39:53;;;;;;;15.93;7.55;;;6.30;99.90;;;;;;4197376;28;20090;-68
2024/01/06 03:41:55;;;;;;;14.32;8.02;;;6.30;99.90;;;;;;4197916;28;20044;-69
2024/01/06 03:43:59;;;;;;;15.35;8.32;;;6.30;99.90;;;;;;4197445;28;20128;-69
2024/01/06 03:46:04;;;;;;;17.88;8.63;;;6.30;99.90;;;;;;4179268;28;20049;-69
2024/01/06 03:48:10;;;;;;;12.77;8.10;;;6.30;99.90;;;;;;4197303;28;20415;-70
2024/01/06 03:50:12;;;;;;;13.15;7.53;;;6.30;99.90;;;;;;4179706;28;20124;-70
2024/01/06 03:52:15;;;;;;;14.13;8.27;;;6.30;99.90;;;;;;4198112;28;20047;-69
2024/01/06 03:54:17;;;;;;;14.98;8.00;;;6.30;99.90;;;;;;4198180;28;20379;-70
2024/01/06 03:56:19;;;;;;;16.27;7.97;;;6.30;99.90;;;;;;4197797;28;20052;-70
2024/01/06 03:58:21;;;;;;;12.50;8.82;;;6.30;99.90;;;;;;4198352;28;20547;-69
2024/01/06 04:00:25;;;;;;;15.68;8.32;;;6.30;99.90;;;;;;4197614;28;20045;-69
2024/01/06 04:02:28;;;;;;;13.98;8.05;;;6.30;99.90;;;;;;4196550;28;20052;-68
2024/01/06 04:04:30;;;;;;;14.50;7.90;;;6.40;99.90;;;;;;4198495;28;20053;-70
2024/01/06 04:06:32;;;;;;;13.23;8.27;;;6.40;99.90;;;;;;4197503;28;20040;-70
2024/01/06 04:08:35;;;;;;;15.95;8.82;;;6.40;99.90;;;;;;4200569;28;20056;-70
2024/01/06 04:10:38;;;;;;;17.05;8.73;;;6.40;99.90;;;;;;4199100;28;20048;-69
2024/01/06 04:12:40;;;;;;;13.32;7.65;;;6.30;99.90;;;;;;4200596;28;20264;-69
2024/01/06 04:14:42;;;;;;;16.20;8.88;;;6.30;99.90;;;;;;4198912;28;20090;-70
2024/01/06 04:16:46;;;;;;;16.33;8.20;;;6.40;99.90;;;;;;4198059;28;20066;-69
2024/01/06 04:18:48;;;;;;;13.93;8.15;;;6.40;99.90;;;;;;4197981;28;20041;-69
2024/01/06 04:20:51;;;;;;;12.90;7.50;;;6.40;99.90;;;;;;4197961;28;20129;-69
2024/01/06 04:22:53;;;;;;;19.70;9.60;;;6.40;99.90;;;;;;4198531;28;20131;-69
2024/01/06 04:24:55;;;;;;;18.08;9.88;;;6.40;99.90;;;;;;4198943;28;20040;-69
2024/01/06 04:26:57;;;;;;;17.92;11.77;;;6.50;99.90;;;;;;4198412;28;20051;-70
2024/01/06 04:28:59;;;;;;;21.23;12.02;;;6.40;99.90;;;;;;4197619;28;20206;-69
2024/01/06 04:31:01;;;;;;;20.95;12.60;;;6.40;99.90;;;;;;4197652;28;20044;-70
2024/01/06 04:33:06;;;;;;;21.02;12.88;;;6.40;99.90;;;;;;4197944;28;20045;-69
2024/01/06 04:35:08;;;;;;;21.55;13.40;;;6.50;99.90;;;;;;4198141;28;20044;-69
2024/01/06 04:37:10;;;;;;;23.02;13.35;;;6.50;99.90;;;;;;4198046;28;20454;-69
2024/01/06 04:39:13;;;;;;;20.85;13.48;;;6.50;99.90;;;;;;4197170;28;20506;-70
2024/01/06 04:41:15;;;;;;;23.10;12.25;;;6.50;99.90;;;;;;4197930;28;20079;-69
2024/01/06 04:43:17;;;;;;;20.17;13.15;;;6.50;99.90;;;;;;4199347;28;20052;-69
2024/01/06 04:45:19;;;;;;;15.73;11.23;;;6.50;99.90;;;;;;4197959;28;20388;-70
2024/01/06 04:47:22;;;;;;;16.25;10.88;;;6.50;99.90;;;;;;4197549;28;20053;-69
2024/01/06 04:49:25;;;;;;;16.83;11.18;;;6.50;99.90;;;;;;4201114;28;20049;-69
2024/01/06 04:51:27;;;;;;;18.88;11.90;;;6.50;99.90;;;;;;4201018;28;20106;-70
2024/01/06 04:53:29;;;;;;;20.02;11.52;;;6.40;99.90;;;;;;4200442;28;20124;-70
2024/01/06 04:55:33;;;;;;;16.92;11.18;;;6.40;99.90;;;;;;4200783;28;20037;-69
2024/01/06 04:57:36;;;;;;;15.10;8.18;;;6.50;99.90;;;;;;4182948;28;20049;-69
2024/01/06 04:59:38;;;;;;;18.15;10.70;;;6.40;99.90;;;;;;4201063;28;20071;-69
2024/01/06 05:01:41;;;;;;;19.80;11.75;;;6.40;99.90;;;;;;4201764;28;20541;-69
2024/01/06 05:03:43;;;;;;;17.65;11.55;;;6.40;99.90;;;;;;4200448;28;20041;-69
2024/01/06 05:05:48;;;;;;;17.50;11.13;;;6.50;99.90;;;;;;4200464;28;20495;-69
2024/01/06 05:07:50;;;;;;;15.95;11.27;;;6.40;99.90;;;;;;4201353;28;20056;-70
2024/01/06 05:09:52;;;;;;;15.85;10.05;;;6.40;99.90;;;;;;4200763;28;20056;-69
2024/01/06 05:11:54;;;;;;;16.17;11.55;;;6.50;99.90;;;;;;4199699;28;20060;-69
2024/01/06 05:13:57;;;;;;;17.35;10.68;;;6.50;99.90;;;;;;4165412;28;20129;-69
2024/01/06 05:16:00;;;;;;;19.73;10.80;;;6.50;99.90;;;;;;4200057;28;20072;-69
2024/01/06 05:18:04;;;;;;;16.90;10.43;;;6.50;99.90;;;;;;4200166;28;20044;-69
2024/01/06 05:20:07;;;;;;;16.00;9.95;;;6.50;99.90;;;;;;4182958;28;20132;-69
2024/01/06 05:22:11;;;;;;;17.15;10.30;;;6.50;99.90;;;;;;4199714;28;20063;-70
2024/01/06 05:24:14;;;;;;;11.88;8.25;;;6.50;99.90;;;;;;4181667;28;20049;-69
2024/01/06 05:26:16;;;;;;;14.88;9.68;;;6.50;99.90;;;;;;4181774;28;20068;-68
2024/01/06 05:28:18;;;;;;;14.98;9.75;;;6.50;99.90;;;;;;4199435;28;20060;-69
2024/01/06 05:30:20;;;;;;;15.55;10.13;;;6.40;99.90;;;;;;4199391;28;20849;-69
2024/01/06 05:32:22;;;;;;;16.33;10.10;;;6.30;99.90;;;;;;4199792;28;20053;-69
2024/01/06 05:34:24;;;;;;;16.27;9.82;;;6.30;99.90;;;;;;4199204;28;20045;-69
2024/01/06 05:36:27;;;;;;;15.48;9.88;;;6.20;99.90;;;;;;4199100;28;20491;-66
2024/01/06 05:38:30;;;;;;;14.15;9.20;;;6.20;99.90;;;;;;4199563;28;20159;-69
2024/01/06 05:40:33;;;;;;;19.13;10.75;;;6.20;99.90;;;;;;4181780;28;20080;-70
2024/01/06 05:42:36;;;;;;;18.13;10.30;;;6.20;99.90;;;;;;4199302;28;20048;-69
2024/01/06 05:44:38;;;;;;;18.17;10.50;;;6.20;99.90;;;;;;4199196;28;20118;-70
2024/01/06 05:46:40;;;;;;;14.52;11.07;;;6.20;99.90;;;;;;4199139;28;20143;-70
2024/01/06 05:48:42;;;;;;;16.25;10.38;;;6.20;99.90;;;;;;4199616;28;20129;-69
2024/01/06 05:50:46;;;;;;;15.13;10.27;;;6.20;99.90;;;;;;4198927;28;20131;-70
2024/01/06 05:52:48;;;;;;;22.00;11.48;;;6.10;99.90;;;;;;4199039;28;20048;-70
2024/01/06 05:54:52;;;;;;;16.30;10.35;;;6.10;99.90;;;;;;4199905;28;20048;-68
2024/01/06 05:56:57;;;;;;;16.00;10.43;;;6.10;99.90;;;;;;4199263;28;20395;-70
2024/01/06 05:59:00;;;;;;;13.60;10.68;;;6.00;99.90;;;;;;4180954;28;20424;-69
2024/01/06 06:01:02;;;;;;;17.58;10.45;;;6.00;99.90;;;;;;4199430;28;20471;-70
2024/01/06 06:03:04;;;;;;;16.27;10.32;;;6.00;99.90;;;;;;4199078;28;20049;-70
2024/01/06 06:05:07;;;;;;;18.13;10.82;;;6.00;99.90;;;;;;4199080;28;20072;-70
2024/01/06 06:07:09;;;;;;;15.60;10.60;;;5.90;99.90;;;;;;4181764;28;20053;-69
2024/01/06 06:09:12;;;;;;;16.85;10.20;;;5.90;99.90;;;;;;4199718;28;20124;-70
2024/01/06 06:11:16;;;;;;;15.15;9.88;;;5.90;99.90;;;;;;4200447;28;20048;-69
2024/01/06 06:13:19;;;;;;;14.55;10.43;;;5.90;99.90;;;;;;4199450;28;20479;-69
2024/01/06 06:15:20;;;;;;;17.33;10.55;;;5.90;99.90;;;;;;4198770;28;20059;-68
2024/01/06 06:17:23;;;;;;;14.15;10.20;;;5.90;99.90;;;;;;4200540;28;20052;-68
2024/01/06 06:19:25;;;;;;;16.05;9.63;;;5.90;99.90;;;;;;4201929;28;20044;-72
2024/01/06 06:21:28;;;;;;;16.02;10.07;;;5.80;99.90;;;;;;4202833;28;20415;-69
2024/01/06 06:23:30;;;;;;;17.45;9.88;;;5.90;99.90;;;;;;4202893;28;20480;-69
2024/01/06 06:25:32;;;;;;;16.00;9.27;;;5.90;99.90;;;;;;4185245;28;20099;-68
2024/01/06 06:27:36;;;;;;;14.38;9.68;;;5.90;99.90;;;;;;4202995;28;20066;-67
2024/01/06 06:29:38;;;;;;;10.63;6.97;;;6.00;99.90;;;;;;4201937;28;20075;-69
2024/01/06 06:31:44;;;;;;;15.15;9.65;;;5.90;99.90;;;;;;4202033;28;20441;-69
2024/01/06 06:33:47;;;;;;;17.42;9.63;;;6.00;99.90;;;;;;4201805;28;20385;-69
2024/01/06 06:35:49;;;;;;;10.98;8.63;;;6.00;99.90;;;;;;4199659;28;20047;-69
2024/01/06 06:37:51;;;;;;;13.98;9.00;;;6.10;99.90;;;;;;4198903;28;20056;-70
2024/01/06 06:39:53;;;;;;;16.23;8.77;;;6.10;99.90;;;;;;4200008;28;20424;-69
2024/01/06 06:41:55;;;;;;;15.60;8.80;;;6.10;99.90;;;;;;4181963;28;20052;-70
2024/01/06 06:43:59;;;;;;;15.25;8.45;;;6.10;99.90;;;;;;4180799;28;20132;-70
2024/01/06 06:46:02;;;;;;;11.82;8.90;;;6.10;99.90;;;;;;4198473;28;20053;-69
2024/01/06 06:48:07;;;;;;;14.88;8.60;;;6.10;99.90;;;;;;4198581;28;20465;-70
2024/01/06 06:50:11;;;;;;;13.52;8.82;;;6.10;99.90;;;;;;4198101;28;20076;-69
2024/01/06 06:52:13;;;;;;;15.60;8.98;;;6.20;99.90;;;;;;4199756;28;20131;-69
2024/01/06 06:54:16;;;;;;;12.73;8.10;;;6.20;99.90;;;;;;4199717;28;20079;-70
2024/01/06 06:56:18;;;;;;;14.63;8.38;;;6.20;99.90;;;;;;4198774;28;20094;-70
2024/01/06 06:58:20;;;;;;;15.07;9.02;;;6.20;99.90;;;;;;4198569;28;20483;-69
2024/01/06 07:00:24;;;;;;;12.43;8.23;;;6.20;99.90;;;;;;4198783;28;20135;-69
2024/01/06 07:02:26;;;;;;;16.33;9.27;;;6.20;99.90;;;;;;4198153;28;20071;-69
2024/01/06 07:04:28;;;;;;;14.75;8.65;;;6.20;99.90;;;;;;4199538;28;20488;-70
2024/01/06 07:06:31;;;;;;;17.35;8.32;;;6.30;99.90;;;;;;4201671;28;20091;-71
2024/01/06 07:08:33;;;;;;;15.80;8.38;;;6.30;99.90;;;;;;4203173;28;20116;-72
2024/01/06 07:10:35;;;;;;;13.98;8.00;;;6.30;99.90;;;;;;4202409;28;20066;-70
2024/01/06 07:12:37;;;;;;;11.30;8.15;;;6.30;99.90;;;;;;4200135;28;20052;-69
2024/01/06 07:14:39;;;;;;;14.48;7.63;;;6.30;99.90;;;;;;4198364;28;20068;-69
2024/01/06 07:16:43;;;;;;;14.02;7.85;;;6.30;99.90;;;;;;4198266;28;20411;-70
2024/01/06 07:18:45;;;;;;;14.07;8.35;;;6.30;99.90;;;;;;4196410;28;20044;-70
2024/01/06 07:20:49;;;;;;;13.18;8.10;;;6.40;99.90;;;;;;4197835;28;20449;-69
2024/01/06 07:22:51;;;;;;;14.75;9.00;;;6.30;99.90;;;;;;4197405;28;20060;-69
2024/01/06 07:24:54;;;;;;;17.90;9.38;;;6.30;99.90;;;;;;4197454;28;20045;-69
2024/01/06 07:26:56;;;;;;;13.88;8.15;;;6.30;99.90;;;;;;4198825;28;20078;-69
2024/01/06 07:28:58;;;;;;;19.42;8.98;;;6.30;99.90;;;;;;4198396;28;20498;-70
2024/01/06 07:31:01;;;;;;;14.30;8.95;;;6.40;99.90;;;;;;4198561;28;20131;-68
2024/01/06 07:33:06;;;;;;;18.48;9.55;;;6.50;99.90;;;;;;4197700;28;20406;-70
2024/01/06 07:35:08;;;;;;;9.75;7.38;;;6.50;99.90;;;;;;4196899;28;20060;-69
2024/01/06 07:37:10;;;;;;;17.10;9.20;;;6.50;99.90;;;;;;4198488;28;20056;-70
2024/01/06 07:39:13;;;;;;;18.38;8.75;;;6.50;99.90;;;;;;4198378;28;20044;-69
2024/01/06 07:41:15;;;;;;;19.17;9.10;;;6.50;99.90;;;;;;4197896;28;20444;-68
2024/01/06 07:43:17;;;;;;;15.82;8.73;;;6.50;99.90;;;;;;4197962;28;20048;-69
2024/01/06 07:45:19;;;;;;;13.05;8.32;;;6.50;99.90;;;;;;4198345;28;20052;-70
2024/01/06 07:47:22;;;;;;;15.88;8.07;;;6.50;99.90;;;;;;4198236;28;20079;-69
2024/01/06 07:49:25;;;;;;;14.15;7.95;;;6.50;99.90;;;;;;4199296;28;20487;-69
2024/01/06 07:51:29;;;;;;;15.95;8.23;;;6.50;99.90;;;;;;4199080;28;20072;-69
2024/01/06 07:53:33;;;;;;;13.52;8.00;;;6.50;99.90;;;;;;4198539;28;20053;-70
2024/01/06 07:55:35;;;;;;;14.45;8.45;;;6.50;99.90;;;;;;4191663;28;20075;-70
2024/01/06 07:57:37;;;;;;;13.05;7.95;;;6.50;99.90;;;;;;4197896;28;20128;-70
2024/01/06 07:59:39;;;;;;;13.35;7.47;;;6.50;99.90;;;;;;4198155;28;20048;-69
2024/01/06 08:01:45;;;;;;;13.27;8.10;;;6.50;99.90;;;;;;4197715;28;20407;-69
2024/01/06 08:03:47;;;;;;;;;;;6.50;99.90;;;;;;4198618;28;20061;-70
2024/01/06 08:05:50;;;;;;;13.13;7.05;;;6.40;99.90;;;;;;4180573;28;20392;-69
2024/01/06 08:07:53;;;;;;;11.63;6.97;;;6.40;99.90;;;;;;4181070;28;20045;-69
2024/01/06 08:09:55;;;;;;;14.63;6.75;;;6.40;99.90;;;;;;4198120;28;20072;-69
2024/01/06 08:11:57;;;;;;;11.07;6.65;;;6.40;99.90;;;;;;4197935;28;20051;-69
2024/01/06 08:13:59;;;;;;;9.00;6.25;;;6.30;99.90;;;;;;4198001;28;20040;-70
2024/01/06 08:16:03;;;;;;;10.45;6.45;;;6.30;99.90;;;;;;4197595;28;20048;-69
2024/01/06 08:18:05;;;;;;;10.88;6.70;;;6.30;99.90;;;;;;4179684;28;20127;-70
2024/01/06 08:20:08;;;;;;;9.70;6.90;;;6.30;99.90;;;;;;4197265;28;20041;-70
2024/01/06 08:22:13;;;;;;;13.80;6.47;;;6.30;99.90;;;;;;4197793;28;20074;-69
2024/01/06 08:24:15;;;;;;;13.30;6.68;;;6.30;99.90;;;;;;4200633;28;20162;-70
2024/01/06 08:26:17;;;;;;;12.98;7.20;;;6.40;99.90;;;;;;4200742;28;20053;-69
2024/01/06 08:28:21;;;;;;;13.30;6.63;;;6.40;99.90;;;;;;4200976;28;20040;-69
2024/01/06 08:30:23;;;;;;;12.60;6.80;;;6.40;99.90;;;;;;4201189;28;20412;-70
2024/01/06 08:32:26;;;;;;;13.10;6.97;;;6.50;99.90;;;;;;4200632;28;20049;-69
2024/01/06 08:34:28;;;;;;;13.18;7.20;;;6.50;99.90;;;;;;4201055;28;20120;-69
2024/01/06 08:36:34;;;;;;;15.57;7.68;;;6.50;99.90;;;;;;4200502;28;20075;-69
2024/01/06 08:38:38;;;;;;;15.07;6.40;;;6.50;99.90;;;;;;4182893;28;20087;-70
2024/01/06 08:40:43;;;;;;;12.13;6.82;;;6.50;99.90;;;;;;4182986;28;20045;-70
2024/01/06 08:42:46;;;;;;;16.98;6.90;;;6.50;99.90;;;;;;4182836;28;20124;-69
2024/01/06 08:44:48;;;;;;;15.73;9.32;;;6.50;99.90;;;;;;4200045;28;20048;-69
2024/01/06 08:46:50;;;;;;;14.68;9.57;;;6.50;99.90;;;;;;4200504;28;20079;-70
2024/01/06 08:48:52;;;;;;;23.45;12.52;;;6.60;99.90;;;;;;4200147;28;20102;-71
2024/01/06 08:50:54;;;;;;;17.52;11.48;;;6.50;99.90;;;;;;4182947;28;20049;-70
2024/01/06 08:52:56;;;;;;;18.27;11.60;;;6.60;99.90;;;;;;4200903;28;20474;-69
2024/01/06 08:55:00;;;;;;;20.60;11.43;;;6.60;99.90;;;;;;4200968;28;20057;-70
2024/01/06 08:57:03;;;;;;;19.48;11.27;;;6.70;99.90;;;;;;4200990;28;20066;-70
2024/01/06 08:59:05;;;;;;;15.30;9.98;;;6.70;99.90;;;;;;4182966;28;20111;-68
2024/01/06 09:01:07;;;;;;;17.08;9.63;;;6.60;99.90;;;;;;4201245;28;20045;-70
2024/01/06 09:03:09;;;;;;;15.27;9.02;;;6.70;99.90;;;;;;4183019;28;20461;-69
2024/01/06 09:05:12;;;;;;;15.65;9.43;;;6.80;99.90;;;;;;4200505;28;20045;-69
2024/01/06 09:07:14;;;;;;;13.20;7.40;;;6.80;99.90;;;;;;4200327;28;20040;-70
2024/01/06 09:09:16;;;;;;;13.32;8.02;;;6.80;99.90;;;;;;4200235;28;20458;-68
2024/01/06 09:11:20;;;;;;;12.38;7.45;;;6.90;99.90;;;;;;4199271;28;20068;-69
2024/01/06 09:13:22;;;;;;;16.15;8.95;;;6.90;99.90;;;;;;4195717;28;20053;-71
2024/01/06 09:15:24;;;;;;;17.73;8.27;;;6.80;99.90;;;;;;4200230;28;20162;-70
2024/01/06 09:17:26;;;;;;;12.38;7.95;;;6.90;99.90;;;;;;4198928;28;20414;-70
2024/01/06 09:19:28;;;;;;;12.25;7.00;;;6.90;99.90;;;;;;4199197;28;20049;-70
2024/01/06 09:21:31;;;;;;;10.10;6.55;;;6.90;99.90;;;;;;4199589;28;20042;-71
2024/01/06 09:23:33;;;;;;;11.27;6.15;;;6.90;99.90;;;;;;4201003;28;20091;-71
2024/01/06 09:25:35;;;;;;;11.48;6.10;;;7.00;99.90;;;;;;4199900;28;20124;-72
2024/01/06 09:27:39;;;;;;;10.43;5.53;;;6.90;99.90;;;;;;4199856;28;20040;-71
2024/01/06 09:29:41;;;;;;;11.57;4.80;;;6.90;99.90;;;;;;4200058;28;20048;-70
2024/01/06 09:31:43;;;;;;;11.88;4.90;;;7.00;99.90;;;;;;4200028;28;20151;-72
2024/01/06 09:33:46;;;;;;;8.43;4.50;;;7.00;99.90;;;;;;4199291;28;20048;-71
2024/01/06 09:35:48;;;;;;;8.10;4.50;;;7.00;99.90;;;;;;4199212;28;20506;-70
2024/01/06 09:37:50;;;;;;;10.25;4.88;;;6.90;99.90;;;;;;4199678;28;20136;-71
2024/01/06 09:39:52;;;;;;;7.30;3.83;;;7.00;99.90;;;;;;4199944;28;20044;-71
2024/01/06 09:41:54;;;;;;;7.55;3.00;;;7.00;99.90;;;;;;4199736;28;20505;-71
2024/01/06 09:43:58;;;;;;;5.45;3.33;;;7.10;99.90;;;;;;4200005;28;20048;-70
2024/01/06 09:46:07;;;;;;;8.02;3.42;;;7.10;99.90;;;;;;4199876;28;20072;-70
2024/01/06 09:48:15;;;;;;;7.05;2.80;;;7.10;99.90;;;;;;4200469;28;20460;-71
2024/01/06 09:50:19;;;;;;;5.93;2.30;;;7.20;99.90;;;;;;4200998;28;20512;-71
2024/01/06 09:52:22;;;;;;;5.97;2.50;;;7.20;99.90;;;;;;4200898;28;20079;-71
2024/01/06 09:54:27;;;;;;;4.05;2.10;;;7.20;99.90;;;;;;4201075;28;20048;-71
2024/01/06 09:56:30;;;;;;;9.88;2.60;;;7.20;99.90;;;;;;4201003;28;20506;-69
2024/01/06 09:58:35;;;;;;;8.23;2.28;;;7.30;99.90;;;;;;4201250;28;20094;-72
2024/01/06 10:00:38;;;;;;;5.65;2.28;;;7.30;99.90;;;;;;4182762;28;20045;-71
2024/01/06 10:02:41;;;;;;;9.30;2.40;;;7.30;99.90;;;;;;4199816;28;20054;-70
2024/01/06 10:04:44;;;;;;;5.97;2.05;;;7.30;99.90;;;;;;4182131;28;20076;-70
2024/01/06 10:06:46;;;;;;;7.65;2.63;;;7.40;99.90;;;;;;4199198;28;20136;-69
2024/01/06 10:08:49;;;;;;;5.88;2.15;;;7.40;99.90;;;;;;4199235;28;20068;-70
2024/01/06 10:10:51;;;;;;;6.95;2.17;;;7.50;99.90;;;;;;4181331;28;20127;-69
2024/01/06 10:12:55;;;;;;;8.13;2.03;;;7.50;99.90;;;;;;4200388;28;20058;-70
2024/01/06 10:14:57;;;;;;;9.30;2.17;;;7.50;99.90;;;;;;4202630;28;20438;-71
2024/01/06 10:17:00;;;;;;;7.32;2.25;;;7.50;99.90;;;;;;4200456;28;20044;-71
2024/01/06 10:19:03;;;;;;;7.22;2.63;;;7.50;99.90;;;;;;4199463;28;20052;-68
2024/01/06 10:21:06;;;;;;;9.13;2.60;;;7.50;99.90;;;;;;4198887;28;20045;-70
2024/01/06 10:23:08;;;;;;;5.38;2.05;;;7.50;99.90;;;;;;4198936;28;20044;-69
2024/01/06 10:25:11;;;;;;;5.90;1.83;;;7.40;99.90;;;;;;4198649;28;20045;-68
2024/01/06 10:27:13;;;;;;;8.15;2.00;;;7.40;99.90;;;;;;4198624;28;20048;-70
2024/01/06 10:29:17;;;;;;;5.65;2.22;;;7.40;99.90;;;;;;4198554;28;20385;-70
2024/01/06 10:31:19;;;;;;;5.32;2.33;;;7.50;99.90;;;;;;4181158;28;20127;-71
2024/01/06 10:33:25;;;;;;;8.98;2.65;;;7.50;99.90;;;;;;4198644;28;20044;-67
2024/01/06 10:35:29;;;;;;;5.25;2.38;;;7.60;99.90;;;;;;4193981;28;20048;-68
2024/01/06 10:37:33;;;;;;;5.05;2.05;;;7.70;99.90;;;;;;4172407;28;20696;-70